createdAt,value
2018-08-08T00:01:24.525Z,1001.27
2018-08-08T00:02:24.518Z,1001.32
2018-08-08T00:04:17.480Z,1001.18
2018-08-08T00:05:17.527Z,1001.23
2018-08-08T00:07:10.417Z,1001.14
2018-08-08T00:08:10.440Z,1001.25
2018-08-08T00:10:03.401Z,1001.30
2018-08-08T00:11:03.396Z,1001.28
2018-08-08T00:12:56.337Z,1001.35
2018-08-08T00:13:56.362Z,1001.45
2018-08-08T00:15:49.316Z,1001.42
2018-08-08T00:16:49.314Z,1001.39
2018-08-08T00:18:42.260Z,1001.33
2018-08-08T00:19:42.279Z,1001.34
2018-08-08T00:21:35.242Z,1001.36
2018-08-08T00:22:35.245Z,1001.36
2018-08-08T00:24:28.199Z,1001.34
2018-08-08T00:25:28.197Z,1001.32
2018-08-08T00:27:21.144Z,1001.26
2018-08-08T00:28:21.159Z,1001.20
2018-08-08T00:30:14.119Z,1001.23
2018-08-08T00:31:14.118Z,1001.18
2018-08-08T00:33:07.069Z,1001.16
2018-08-08T00:34:07.082Z,1001.17
2018-08-08T00:36:00.038Z,1001.19
2018-08-08T00:37:00.038Z,1001.15
2018-08-08T00:38:52.980Z,1001.20
2018-08-08T00:39:53.000Z,1001.17
2018-08-08T00:41:45.957Z,1001.22
2018-08-08T00:42:45.957Z,1001.20
2018-08-08T00:44:38.925Z,1001.08
2018-08-08T00:45:39.040Z,1001.04
2018-08-08T00:47:31.852Z,1000.98
2018-08-08T00:48:31.873Z,1001.03
2018-08-08T00:50:24.831Z,1001.02
2018-08-08T00:51:24.831Z,1001.12
2018-08-08T00:53:17.772Z,1001.17
2018-08-08T00:54:17.786Z,1001.19
2018-08-08T00:56:10.745Z,1001.20
2018-08-08T00:57:10.745Z,1001.27
2018-08-08T00:59:03.684Z,1001.40
2018-08-08T01:00:03.706Z,1001.45
2018-08-08T01:01:56.659Z,1001.56
2018-08-08T01:02:56.665Z,1001.63
2018-08-08T01:04:49.627Z,1001.97
2018-08-08T01:05:49.614Z,1002.10
2018-08-08T01:07:42.546Z,1002.25
2018-08-08T01:08:42.710Z,1002.23
2018-08-08T01:10:35.519Z,1002.33
2018-08-08T01:11:35.522Z,1002.33
2018-08-08T01:13:28.458Z,1002.32
2018-08-08T01:14:28.478Z,1002.27
2018-08-08T01:16:21.431Z,1002.33
2018-08-08T01:17:21.432Z,1002.40
2018-08-08T01:19:14.373Z,1002.31
2018-08-08T01:20:14.393Z,1002.28
2018-08-08T01:22:07.359Z,1002.27
2018-08-08T01:23:07.361Z,1002.26
2018-08-08T01:25:00.286Z,1002.14
2018-08-08T01:26:00.302Z,1002.07
2018-08-08T01:27:53.273Z,1002.11
2018-08-08T01:28:53.270Z,1002.13
2018-08-08T01:30:46.230Z,1002.10
2018-08-08T01:31:46.229Z,1001.98
2018-08-08T01:33:39.163Z,1002.02
2018-08-08T01:34:39.179Z,1002.01
2018-08-08T01:36:32.139Z,1001.95
2018-08-08T01:37:32.134Z,1001.89
2018-08-08T01:39:25.074Z,1001.93
2018-08-08T01:40:25.095Z,1002.06
2018-08-08T01:42:18.058Z,1002.02
2018-08-08T01:43:18.058Z,1001.99
2018-08-08T01:45:10.994Z,1001.94
2018-08-08T01:46:11.013Z,1001.98
2018-08-08T01:48:03.973Z,1001.92
2018-08-08T01:49:03.968Z,1001.80
2018-08-08T01:50:56.930Z,1001.75
2018-08-08T01:51:56.921Z,1001.74
2018-08-08T01:53:49.859Z,1001.66
2018-08-08T02:23:43.461Z,1001.03
2018-08-08T02:24:43.449Z,1000.95
2018-08-08T02:26:36.398Z,1000.95
2018-08-08T02:27:36.392Z,1000.93
2018-08-08T02:29:29.319Z,1000.81
2018-08-08T02:30:29.328Z,1000.81
2018-08-08T02:32:22.288Z,1000.76
2018-08-08T02:33:22.280Z,1000.82
2018-08-08T02:35:15.220Z,1001.03
2018-08-08T02:36:15.232Z,1001.01
2018-08-08T02:38:08.179Z,1000.71
2018-08-08T02:39:08.175Z,1000.53
2018-08-08T02:41:01.120Z,1000.44
2018-08-08T02:42:01.133Z,1000.62
2018-08-08T02:43:54.080Z,1000.74
2018-08-08T02:44:54.075Z,1000.65
2018-08-08T02:46:47.032Z,1000.52
2018-08-08T02:47:47.023Z,1000.77
2018-08-08T02:49:39.965Z,1001.13
2018-08-08T02:50:39.979Z,1001.03
2018-08-08T02:52:32.935Z,1001.07
2018-08-08T02:53:32.933Z,1001.01
2018-08-08T02:55:25.873Z,1000.91
2018-08-08T02:56:25.880Z,1000.94
2018-08-08T02:58:18.839Z,1001.02
2018-08-08T02:59:18.838Z,1001.06
2018-08-08T03:01:11.768Z,1001.06
2018-08-08T03:02:11.788Z,1001.15
2018-08-08T03:04:04.743Z,1001.46
2018-08-08T03:05:04.757Z,1001.57
2018-08-08T03:06:57.701Z,1001.76
2018-08-08T03:07:57.696Z,1001.81
2018-08-08T03:09:50.633Z,1002.01
2018-08-08T03:10:50.651Z,1002.20
2018-08-08T03:12:43.612Z,1002.52
2018-08-08T03:13:43.605Z,1002.66
2018-08-08T03:15:36.551Z,1002.93
2018-08-08T03:16:36.569Z,1002.88
2018-08-08T03:18:29.583Z,1002.64
2018-08-08T03:19:29.540Z,1002.61
2018-08-08T03:21:22.459Z,1002.45
2018-08-08T03:22:22.476Z,1002.43
2018-08-08T03:24:15.424Z,1002.58
2018-08-08T03:25:15.421Z,1002.57
2018-08-08T03:27:08.373Z,1002.53
2018-08-08T03:28:08.369Z,1002.45
2018-08-08T03:30:01.307Z,1002.60
2018-08-08T03:31:01.324Z,1002.63
2018-08-08T03:32:54.272Z,1002.42
2018-08-08T03:33:54.269Z,1002.48
2018-08-08T03:35:47.201Z,1002.62
2018-08-08T03:36:47.222Z,1002.72
2018-08-08T03:38:40.177Z,1002.81
2018-08-08T03:39:40.170Z,1002.81
2018-08-08T03:41:33.111Z,1002.83
2018-08-08T03:42:33.210Z,1002.87
2018-08-08T03:44:26.091Z,1002.91
2018-08-08T03:45:26.081Z,1002.85
2018-08-08T03:47:19.016Z,1002.88
2018-08-08T03:48:19.033Z,1002.82
2018-08-08T03:50:11.980Z,1002.95
2018-08-08T03:51:11.983Z,1002.95
2018-08-08T03:53:04.949Z,1002.92
2018-08-08T03:54:04.939Z,1002.94
2018-08-08T03:55:57.873Z,1002.99
2018-08-08T03:56:57.885Z,1002.95
2018-08-08T03:58:50.866Z,1003.01
2018-08-08T03:59:50.842Z,1003.05
2018-08-08T04:01:43.774Z,1003.17
2018-08-08T04:02:43.879Z,1003.28
2018-08-08T04:04:36.755Z,1003.54
2018-08-08T04:05:36.778Z,1003.64
2018-08-08T04:07:29.693Z,1003.90
2018-08-08T04:08:29.708Z,1003.95
2018-08-08T04:10:22.671Z,1004.25
2018-08-08T04:11:22.664Z,1004.28
2018-08-08T04:13:15.618Z,1004.44
2018-08-08T04:14:15.611Z,1004.53
2018-08-08T04:16:08.547Z,1004.66
2018-08-08T04:17:08.621Z,1004.72
2018-08-08T04:19:01.518Z,1004.72
2018-08-08T04:20:01.512Z,1004.78
2018-08-08T04:21:54.452Z,1004.77
2018-08-08T04:22:54.470Z,1004.72
2018-08-08T04:24:47.418Z,1004.79
2018-08-08T04:25:47.413Z,1004.80
2018-08-08T04:27:40.350Z,1004.76
2018-08-08T04:28:40.364Z,1004.75
2018-08-08T04:30:33.322Z,1004.63
2018-08-08T04:31:33.314Z,1004.54
2018-08-08T04:33:26.269Z,1004.49
2018-08-08T04:34:26.268Z,1004.53
2018-08-08T04:36:19.193Z,1004.54
2018-08-08T04:37:19.213Z,1004.59
2018-08-08T04:39:12.168Z,1004.54
2018-08-08T04:40:12.163Z,1004.61
2018-08-08T04:42:05.107Z,1004.62
2018-08-08T04:43:05.120Z,1004.66
2018-08-08T04:44:58.075Z,1004.64
2018-08-08T04:45:58.073Z,1004.66
2018-08-08T04:47:51.006Z,1004.63
2018-08-08T04:48:51.022Z,1004.61
2018-08-08T04:50:43.976Z,1004.62
2018-08-08T04:51:43.975Z,1004.64
2018-08-08T04:53:36.927Z,1004.63
2018-08-08T04:54:36.927Z,1004.64
2018-08-08T04:56:29.866Z,1004.62
2018-08-08T04:57:29.878Z,1004.72
2018-08-08T04:59:22.834Z,1004.66
2018-08-08T05:00:22.883Z,1004.61
2018-08-08T05:02:15.775Z,1004.62
2018-08-08T05:03:15.785Z,1004.60
2018-08-08T05:05:08.741Z,1004.60
2018-08-08T05:06:08.744Z,1004.61
2018-08-08T05:08:01.717Z,1004.61
2018-08-08T05:09:01.689Z,1004.57
2018-08-08T05:10:54.642Z,1004.48
2018-08-08T05:11:54.633Z,1004.45
2018-08-08T05:13:47.590Z,1004.46
2018-08-08T05:14:47.585Z,1004.41
2018-08-08T05:16:40.527Z,1004.37
2018-08-08T05:17:40.543Z,1004.41
2018-08-08T05:19:33.487Z,1004.32
2018-08-08T05:20:33.490Z,1004.34
2018-08-08T05:22:26.421Z,1004.28
2018-08-08T05:23:26.436Z,1004.29
2018-08-08T05:25:19.389Z,1004.25
2018-08-08T05:26:19.388Z,1004.28
2018-08-08T05:28:12.326Z,1004.22
2018-08-08T05:29:12.342Z,1004.20
2018-08-08T05:31:05.306Z,1004.20
2018-08-08T05:32:05.288Z,1004.17
2018-08-08T05:33:58.262Z,1004.09
2018-08-08T05:34:58.241Z,1004.09
2018-08-08T05:36:51.178Z,1004.09
2018-08-08T05:37:51.192Z,1004.06
2018-08-08T05:39:44.147Z,1004.00
2018-08-08T05:40:44.143Z,1003.95
2018-08-08T05:42:37.076Z,1003.96
2018-08-08T05:43:37.089Z,1003.94
2018-08-08T05:45:30.042Z,1003.88
2018-08-08T05:46:30.042Z,1003.92
2018-08-08T05:48:22.969Z,1003.92
2018-08-08T05:49:23.020Z,1003.92
2018-08-08T05:51:15.956Z,1003.96
2018-08-08T05:52:15.949Z,1004.01
2018-08-08T05:54:08.880Z,1004.02
2018-08-08T05:55:08.896Z,1004.05
2018-08-08T05:57:01.847Z,1004.01
2018-08-08T05:58:01.847Z,1004.01
2018-08-08T05:59:54.801Z,1003.98
2018-08-08T06:00:54.801Z,1003.98
2018-08-08T06:02:47.741Z,1003.99
2018-08-08T06:03:47.755Z,1003.98
2018-08-08T06:05:40.707Z,1004.03
2018-08-08T06:06:40.702Z,1004.00
2018-08-08T06:08:33.639Z,1004.00
2018-08-08T06:09:33.655Z,1004.01
2018-08-08T06:11:26.618Z,1004.05
2018-08-08T06:12:26.615Z,1004.04
2018-08-08T06:14:19.567Z,1004.06
2018-08-08T06:15:19.569Z,1004.05
2018-08-08T06:17:12.526Z,1003.95
2018-08-08T06:18:12.522Z,1003.97
2018-08-08T06:20:05.478Z,1003.98
2018-08-08T06:21:05.473Z,1003.97
2018-08-08T06:22:58.413Z,1003.96
2018-08-08T06:23:58.425Z,1003.95
2018-08-08T06:25:51.389Z,1003.94
2018-08-08T06:26:51.386Z,1003.88
2018-08-08T06:28:44.321Z,1003.84
2018-08-08T06:29:44.336Z,1003.85
2018-08-08T06:31:37.297Z,1003.92
2018-08-08T06:32:37.296Z,1003.92
2018-08-08T06:34:30.229Z,1003.88
2018-08-08T06:35:30.246Z,1003.93
2018-08-08T06:37:23.206Z,1003.88
2018-08-08T06:38:23.199Z,1003.85
2018-08-08T06:40:16.160Z,1003.84
2018-08-08T06:41:16.159Z,1003.83
2018-08-08T06:43:09.584Z,1003.78
2018-08-08T06:44:09.642Z,1003.77
2018-08-08T06:46:02.555Z,1003.72
2018-08-08T06:47:02.554Z,1003.69
2018-08-08T06:48:55.496Z,1003.70
2018-08-08T06:49:55.562Z,1003.75
2018-08-08T06:51:48.460Z,1003.80
2018-08-08T06:52:48.459Z,1003.75
2018-08-08T06:54:41.396Z,1003.78
2018-08-08T06:55:41.411Z,1003.74
2018-08-08T06:57:34.360Z,1003.79
2018-08-08T06:58:34.359Z,1003.79
2018-08-08T07:00:27.297Z,1003.75
2018-08-08T07:01:27.314Z,1003.78
2018-08-08T07:03:20.264Z,1003.80
2018-08-08T07:04:20.264Z,1003.82
2018-08-08T07:06:13.219Z,1003.87
2018-08-08T07:07:13.218Z,1003.88
2018-08-08T07:09:06.155Z,1003.95
2018-08-08T07:10:06.178Z,1003.94
2018-08-08T07:11:59.128Z,1003.87
2018-08-08T07:12:59.180Z,1003.84
2018-08-08T07:14:52.070Z,1003.72
2018-08-08T07:15:52.088Z,1003.81
2018-08-08T07:17:45.048Z,1003.76
2018-08-08T07:18:45.048Z,1003.77
2018-08-08T07:20:37.982Z,1003.81
2018-08-08T07:21:38.000Z,1003.87
2018-08-08T07:23:30.960Z,1003.91
2018-08-08T07:24:30.958Z,1003.89
2018-08-08T07:26:23.915Z,1003.92
2018-08-08T07:27:23.921Z,1003.98
2018-08-08T07:29:16.853Z,1003.95
2018-08-08T07:30:16.870Z,1003.99
2018-08-08T07:32:09.877Z,1003.97
2018-08-08T07:33:09.825Z,1003.95
2018-08-08T07:35:02.766Z,1003.98
2018-08-08T07:36:02.780Z,1003.95
2018-08-08T07:37:55.734Z,1003.90
2018-08-08T07:38:55.733Z,1003.93
2018-08-08T07:40:48.671Z,1003.94
2018-08-08T07:41:48.693Z,1003.92
2018-08-08T07:43:41.651Z,1003.89
2018-08-08T07:44:41.652Z,1003.82
2018-08-08T07:46:34.610Z,1003.80
2018-08-08T07:47:34.605Z,1003.81
2018-08-08T07:49:27.539Z,1003.81
2018-08-08T07:50:27.559Z,1003.79
2018-08-08T07:52:20.513Z,1003.77
2018-08-08T07:53:20.513Z,1003.93
2018-08-08T07:55:13.454Z,1003.96
2018-08-08T07:56:13.474Z,1003.93
2018-08-08T07:58:06.611Z,1003.75
2018-08-08T07:59:06.427Z,1003.77
2018-08-08T08:00:59.364Z,1003.71
2018-08-08T08:01:59.381Z,1003.67
2018-08-08T08:03:52.344Z,1003.75
2018-08-08T08:04:52.348Z,1003.65
2018-08-08T08:06:45.295Z,1003.66
2018-08-08T08:07:45.294Z,1003.59
2018-08-08T08:09:38.233Z,1003.66
2018-08-08T08:10:38.250Z,1003.69
2018-08-08T08:12:31.219Z,1003.69
2018-08-08T08:13:31.207Z,1003.73
2018-08-08T08:15:24.147Z,1003.73
2018-08-08T08:16:24.164Z,1003.79
2018-08-08T08:18:17.120Z,1003.78
2018-08-08T08:19:17.116Z,1003.88
2018-08-08T08:21:10.052Z,1003.89
2018-08-08T08:22:10.072Z,1004.05
2018-08-08T08:24:03.036Z,1004.15
2018-08-08T08:25:03.030Z,1004.19
2018-08-08T08:26:55.999Z,1004.25
2018-08-08T08:27:55.985Z,1004.25
2018-08-08T08:29:48.958Z,1004.28
2018-08-08T08:30:48.941Z,1004.24
2018-08-08T08:32:41.903Z,1004.36
2018-08-08T08:33:41.902Z,1004.30
2018-08-08T08:35:34.837Z,1004.41
2018-08-08T08:36:34.852Z,1004.49
2018-08-08T08:38:27.812Z,1004.41
2018-08-08T08:39:27.813Z,1004.54
2018-08-08T08:41:20.754Z,1004.50
2018-08-08T08:42:20.772Z,1004.50
2018-08-08T08:44:13.722Z,1004.55
2018-08-08T08:45:13.723Z,1004.54
2018-08-08T08:47:06.662Z,1004.66
2018-08-08T08:48:06.685Z,1004.66
2018-08-08T08:49:59.685Z,1004.76
2018-08-08T08:50:59.638Z,1004.72
2018-08-08T08:52:52.590Z,1004.72
2018-08-08T08:53:52.589Z,1004.77
2018-08-08T08:55:45.524Z,1004.79
2018-08-08T08:56:45.545Z,1004.84
2018-08-08T08:58:38.498Z,1004.86
2018-08-08T08:59:38.504Z,1004.89
2018-08-08T09:01:31.444Z,1004.96
2018-08-08T09:02:31.527Z,1004.95
2018-08-08T09:04:24.426Z,1004.91
2018-08-08T09:05:24.429Z,1004.97
2018-08-08T09:07:17.394Z,1004.97
2018-08-08T09:08:17.383Z,1004.98
2018-08-08T09:10:10.344Z,1005.02
2018-08-08T09:11:10.345Z,1005.04
2018-08-08T09:13:03.309Z,1005.20
2018-08-08T09:14:03.308Z,1005.25
2018-08-08T09:15:56.245Z,1005.24
2018-08-08T09:16:56.265Z,1005.36
2018-08-08T09:18:49.222Z,1005.33
2018-08-08T09:19:49.227Z,1005.47
2018-08-08T09:21:42.176Z,1005.46
2018-08-08T09:22:42.196Z,1005.45
2018-08-08T09:24:35.154Z,1005.43
2018-08-08T09:25:35.154Z,1005.45
2018-08-08T09:27:28.100Z,1005.51
2018-08-08T09:28:28.131Z,1005.60
2018-08-08T09:30:21.084Z,1005.59
2018-08-08T09:31:21.073Z,1005.56
2018-08-08T09:33:14.036Z,1005.57
2018-08-08T09:34:14.043Z,1005.60
2018-08-08T09:36:06.985Z,1005.66
2018-08-08T09:37:07.002Z,1005.66
2018-08-08T09:38:59.961Z,1005.63
2018-08-08T09:39:59.964Z,1005.61
2018-08-08T09:41:52.900Z,1005.55
2018-08-08T09:42:52.927Z,1005.71
2018-08-08T09:44:45.881Z,1005.72
2018-08-08T09:45:45.885Z,1005.79
2018-08-08T09:47:38.844Z,1005.79
2018-08-08T09:48:38.853Z,1005.81
2018-08-08T09:50:31.814Z,1005.88
2018-08-08T09:51:31.816Z,1005.90
2018-08-08T09:53:24.755Z,1005.92
2018-08-08T09:54:24.777Z,1006.01
2018-08-08T09:56:17.782Z,1005.89
2018-08-08T09:57:17.742Z,1005.86
2018-08-08T09:59:10.700Z,1005.94
2018-08-08T10:00:10.700Z,1005.96
2018-08-08T10:02:03.644Z,1005.99
2018-08-08T10:03:03.662Z,1006.08
2018-08-08T10:04:56.625Z,1006.07
2018-08-08T10:05:56.619Z,1006.08
2018-08-08T10:07:49.562Z,1006.16
2018-08-08T10:08:49.582Z,1006.17
2018-08-08T10:10:42.550Z,1006.10
2018-08-08T10:11:42.549Z,1006.26
2018-08-08T10:13:35.495Z,1006.23
2018-08-08T10:14:35.511Z,1006.27
2018-08-08T10:16:28.479Z,1006.31
2018-08-08T10:17:28.482Z,1006.24
2018-08-08T10:19:21.442Z,1006.36
2018-08-08T10:20:21.440Z,1006.34
2018-08-08T10:22:14.379Z,1006.39
2018-08-08T10:23:14.397Z,1006.48
2018-08-08T10:25:07.370Z,1006.43
2018-08-08T10:26:07.362Z,1006.49
2018-08-08T10:28:00.304Z,1006.58
2018-08-08T10:29:00.324Z,1006.55
2018-08-08T10:30:53.283Z,1006.65
2018-08-08T10:31:53.283Z,1006.62
2018-08-08T10:33:46.223Z,1006.63
2018-08-08T10:34:46.241Z,1006.70
2018-08-08T10:36:39.196Z,1006.71
2018-08-08T10:37:39.200Z,1006.73
2018-08-08T10:39:32.162Z,1006.76
2018-08-08T10:40:32.176Z,1006.81
2018-08-08T10:42:25.105Z,1006.81
2018-08-08T10:43:25.126Z,1006.84
2018-08-08T10:45:18.082Z,1006.82
2018-08-08T10:46:18.083Z,1006.87
2018-08-08T10:48:11.020Z,1006.86
2018-08-08T10:49:11.043Z,1006.92
2018-08-08T10:51:04.016Z,1006.97
2018-08-08T10:52:04.016Z,1006.92
2018-08-08T10:53:56.956Z,1006.99
2018-08-08T10:54:56.976Z,1006.98
2018-08-08T10:56:49.936Z,1006.99
2018-08-08T10:57:49.934Z,1006.99
2018-08-08T10:59:42.978Z,1006.95
2018-08-08T11:00:42.903Z,1006.95
2018-08-08T11:02:35.864Z,1006.99
2018-08-08T11:03:35.865Z,1007.06
2018-08-08T11:05:28.830Z,1007.03
2018-08-08T11:06:28.825Z,1007.07
2018-08-08T11:08:21.772Z,1007.13
2018-08-08T11:09:21.787Z,1007.08
2018-08-08T11:11:14.747Z,1007.12
2018-08-08T11:12:14.751Z,1007.13
2018-08-08T11:14:07.692Z,1007.19
2018-08-08T11:15:07.711Z,1007.17
2018-08-08T11:17:00.729Z,1007.19
2018-08-08T11:18:00.674Z,1007.18
2018-08-08T11:19:53.607Z,1007.21
2018-08-08T11:20:53.631Z,1007.21
2018-08-08T11:22:46.596Z,1007.20
2018-08-08T11:23:46.609Z,1007.19
2018-08-08T11:25:39.562Z,1007.29
2018-08-08T11:26:39.562Z,1007.31
2018-08-08T11:28:32.501Z,1007.32
2018-08-08T11:29:32.522Z,1007.36
2018-08-08T11:31:25.474Z,1007.39
2018-08-08T11:32:25.474Z,1007.44
2018-08-08T11:34:18.415Z,1007.39
2018-08-08T11:35:18.433Z,1007.43
2018-08-08T11:37:11.393Z,1007.50
2018-08-08T11:38:11.398Z,1007.56
2018-08-08T11:40:04.336Z,1007.52
2018-08-08T11:41:04.357Z,1007.59
2018-08-08T11:42:57.312Z,1007.57
2018-08-08T11:43:57.311Z,1007.64
2018-08-08T11:45:50.269Z,1007.63
2018-08-08T11:46:50.329Z,1007.59
2018-08-08T11:48:43.213Z,1007.64
2018-08-08T11:49:43.231Z,1007.66
2018-08-08T11:51:36.195Z,1007.80
2018-08-08T11:52:36.201Z,1007.81
2018-08-08T11:54:29.135Z,1007.76
2018-08-08T11:55:29.155Z,1007.83
2018-08-08T11:57:22.117Z,1007.91
2018-08-08T11:58:22.115Z,1007.93
2018-08-08T12:00:15.055Z,1007.92
2018-08-08T12:01:15.074Z,1007.93
2018-08-08T12:03:08.031Z,1008.02
2018-08-08T12:04:08.041Z,1008.05
2018-08-08T12:06:01.003Z,1008.07
2018-08-08T12:07:00.997Z,1008.08
2018-08-08T12:08:53.932Z,1008.16
2018-08-08T12:09:53.952Z,1008.12
2018-08-08T12:11:46.921Z,1008.14
2018-08-08T12:12:46.920Z,1008.14
2018-08-08T12:14:39.862Z,1008.11
2018-08-08T12:15:39.882Z,1008.11
2018-08-08T12:17:32.843Z,1008.13
2018-08-08T12:18:32.836Z,1008.18
2018-08-08T12:20:25.778Z,1008.10
2018-08-08T12:21:25.797Z,1008.15
2018-08-08T12:23:18.782Z,1008.21
2018-08-08T12:24:18.774Z,1008.20
2018-08-08T12:26:11.740Z,1008.24
2018-08-08T12:27:11.730Z,1008.22
2018-08-08T12:29:04.676Z,1008.30
2018-08-08T12:30:04.694Z,1008.29
2018-08-08T12:31:57.656Z,1008.36
2018-08-08T12:32:57.651Z,1008.37
2018-08-08T12:34:50.592Z,1008.37
2018-08-08T12:35:50.607Z,1008.34
2018-08-08T12:37:43.565Z,1008.37
2018-08-08T12:38:43.566Z,1008.38
2018-08-08T12:40:36.505Z,1008.45
2018-08-08T12:41:36.525Z,1008.41
2018-08-08T12:43:29.481Z,1008.38
2018-08-08T12:44:29.488Z,1008.42
2018-08-08T12:46:22.438Z,1008.45
2018-08-08T12:47:22.439Z,1008.51
2018-08-08T12:49:15.386Z,1008.51
2018-08-08T12:50:15.405Z,1008.42
2018-08-08T12:52:08.364Z,1008.46
2018-08-08T12:53:08.381Z,1008.46
2018-08-08T12:55:01.301Z,1008.53
2018-08-08T12:56:01.320Z,1008.54
2018-08-08T12:57:54.279Z,1008.58
2018-08-08T12:58:54.278Z,1008.56
2018-08-08T13:00:47.234Z,1008.50
2018-08-08T13:01:47.242Z,1008.57
2018-08-08T13:03:40.196Z,1008.64
2018-08-08T13:04:40.197Z,1008.63
2018-08-08T13:06:33.145Z,1008.59
2018-08-08T13:07:33.158Z,1008.67
2018-08-08T13:09:26.119Z,1008.64
2018-08-08T13:10:26.119Z,1008.65
2018-08-08T13:12:19.081Z,1008.57
2018-08-08T13:13:19.089Z,1008.59
2018-08-08T13:15:12.020Z,1008.64
2018-08-08T13:16:12.054Z,1008.62
2018-08-08T13:18:04.995Z,1008.69
2018-08-08T13:19:04.995Z,1008.72
2018-08-08T13:20:57.953Z,1008.72
2018-08-08T13:21:57.964Z,1008.68
2018-08-08T13:23:50.968Z,1008.63
2018-08-08T13:24:50.988Z,1008.64
2018-08-08T13:26:43.870Z,1008.63
2018-08-08T13:27:43.887Z,1008.59
2018-08-08T13:29:36.848Z,1008.59
2018-08-08T13:30:36.852Z,1008.60
2018-08-08T13:32:29.810Z,1008.56
2018-08-08T13:33:29.811Z,1008.55
2018-08-08T13:35:22.756Z,1008.53
2018-08-08T13:36:22.774Z,1008.54
2018-08-08T13:38:15.741Z,1008.56
2018-08-08T13:39:15.759Z,1008.61
2018-08-08T13:41:08.683Z,1008.59
2018-08-08T13:42:08.701Z,1008.64
2018-08-08T13:44:01.659Z,1008.59
2018-08-08T13:45:01.658Z,1008.61
2018-08-08T13:46:54.601Z,1008.61
2018-08-08T13:47:54.618Z,1008.62
2018-08-08T13:49:47.574Z,1008.59
2018-08-08T13:50:47.574Z,1008.61
2018-08-08T13:52:40.535Z,1008.61
2018-08-08T13:53:40.534Z,1008.60
2018-08-08T13:55:33.469Z,1008.59
2018-08-08T13:56:33.485Z,1008.61
2018-08-08T13:58:26.448Z,1008.56
2018-08-08T13:59:26.465Z,1008.55
2018-08-08T14:01:19.416Z,1008.54
2018-08-08T14:02:19.415Z,1008.56
2018-08-08T14:04:12.375Z,1008.56
2018-08-08T14:05:12.374Z,1008.52
2018-08-08T14:07:05.314Z,1008.60
2018-08-08T14:08:05.337Z,1008.58
2018-08-08T14:09:58.295Z,1008.54
2018-08-08T14:10:58.300Z,1008.51
2018-08-08T14:12:51.750Z,1008.61
2018-08-08T14:13:51.748Z,1008.58
2018-08-08T14:15:44.702Z,1008.59
2018-08-08T14:16:44.717Z,1008.54
2018-08-08T14:18:37.711Z,1008.59
2018-08-08T14:19:37.674Z,1008.63
2018-08-08T14:21:30.623Z,1008.62
2018-08-08T14:22:30.644Z,1008.61
2018-08-08T14:24:23.597Z,1008.65
2018-08-08T14:25:23.597Z,1008.65
2018-08-08T14:27:16.533Z,1008.65
2018-08-08T14:28:16.554Z,1008.63
2018-08-08T14:30:09.528Z,1008.57
2018-08-08T14:31:09.526Z,1008.64
2018-08-08T14:33:02.492Z,1008.60
2018-08-08T14:34:02.481Z,1008.58
2018-08-08T14:35:55.414Z,1008.60
2018-08-08T14:36:55.435Z,1008.60
2018-08-08T14:38:48.388Z,1008.62
2018-08-08T14:39:48.390Z,1008.68
2018-08-08T14:41:41.323Z,1008.75
2018-08-08T14:42:41.343Z,1008.71
2018-08-08T14:44:34.308Z,1008.69
2018-08-08T14:45:34.307Z,1008.66
2018-08-08T14:47:27.243Z,1008.67
2018-08-08T14:48:27.260Z,1008.72
2018-08-08T14:50:20.229Z,1008.73
2018-08-08T14:51:20.227Z,1008.69
2018-08-08T14:53:13.170Z,1008.67
2018-08-08T14:54:13.188Z,1008.68
2018-08-08T14:56:06.146Z,1008.72
2018-08-08T14:57:06.152Z,1008.74
2018-08-08T14:58:59.106Z,1008.81
2018-08-08T14:59:59.105Z,1008.77
2018-08-08T15:01:52.053Z,1008.77
2018-08-08T15:02:52.071Z,1008.83
2018-08-08T15:04:45.036Z,1008.88
2018-08-08T15:05:45.036Z,1008.80
2018-08-08T15:07:37.976Z,1008.75
2018-08-08T15:08:38.001Z,1008.78
2018-08-08T15:10:30.957Z,1008.76
2018-08-08T15:11:30.956Z,1008.82
2018-08-08T15:13:23.895Z,1008.78
2018-08-08T15:14:23.915Z,1008.78
2018-08-08T15:16:16.871Z,1008.73
2018-08-08T15:17:16.874Z,1008.78
2018-08-08T15:19:09.841Z,1008.75
2018-08-08T15:20:09.831Z,1008.80
2018-08-08T15:22:02.768Z,1008.84
2018-08-08T15:23:02.852Z,1008.92
2018-08-08T15:24:55.746Z,1008.88
2018-08-08T15:25:55.771Z,1008.86
2018-08-08T15:27:48.692Z,1008.86
2018-08-08T15:28:48.709Z,1008.77
2018-08-08T15:30:41.665Z,1008.80
2018-08-08T15:31:41.836Z,1008.70
2018-08-08T15:33:34.603Z,1008.79
2018-08-08T15:34:34.622Z,1008.78
2018-08-08T15:36:27.603Z,1008.80
2018-08-08T15:37:27.980Z,1008.83
2018-08-08T15:39:20.542Z,1008.80
2018-08-08T15:40:20.545Z,1008.81
2018-08-08T15:42:13.483Z,1008.79
2018-08-08T15:43:13.497Z,1008.77
2018-08-08T15:45:06.465Z,1008.71
2018-08-08T15:46:06.467Z,1008.71
2018-08-08T15:47:59.424Z,1008.74
2018-08-08T15:48:59.431Z,1008.76
2018-08-08T15:50:52.387Z,1008.77
2018-08-08T15:51:52.384Z,1008.76
2018-08-08T15:53:45.335Z,1008.79
2018-08-08T15:54:45.352Z,1008.77
2018-08-08T15:56:38.308Z,1008.80
2018-08-08T15:57:38.307Z,1008.72
2018-08-08T15:59:31.270Z,1008.73
2018-08-08T16:00:31.272Z,1008.77
2018-08-08T16:02:24.237Z,1008.74
2018-08-08T16:03:24.231Z,1008.77
2018-08-08T16:05:17.188Z,1008.70
2018-08-08T16:06:17.186Z,1008.76
2018-08-08T16:08:10.120Z,1008.78
2018-08-08T16:09:10.144Z,1008.76
2018-08-08T16:11:03.113Z,1008.75
2018-08-08T16:12:03.149Z,1008.78
2018-08-08T16:13:56.046Z,1008.76
2018-08-08T16:14:56.063Z,1008.78
2018-08-08T16:16:49.028Z,1008.85
2018-08-08T16:17:49.031Z,1008.79
2018-08-08T16:19:42.000Z,1008.81
2018-08-08T16:20:41.987Z,1008.82
2018-08-08T16:22:34.917Z,1008.83
2018-08-08T16:23:34.940Z,1008.76
2018-08-08T16:25:27.898Z,1008.76
2018-08-08T16:26:27.900Z,1008.72
2018-08-08T16:28:20.830Z,1008.72
2018-08-08T16:29:20.847Z,1008.71
2018-08-08T16:31:13.888Z,1008.75
2018-08-08T16:32:13.814Z,1008.76
2018-08-08T16:34:06.762Z,1008.69
2018-08-08T16:35:06.781Z,1008.66
2018-08-08T16:36:59.739Z,1008.67
2018-08-08T16:37:59.736Z,1008.68
2018-08-08T16:39:52.673Z,1008.62
2018-08-08T16:40:52.696Z,1008.66
2018-08-08T16:42:45.647Z,1008.64
2018-08-08T16:43:45.651Z,1008.67
2018-08-08T16:45:38.611Z,1008.66
2018-08-08T16:46:38.613Z,1008.69
2018-08-08T16:48:31.546Z,1008.67
2018-08-08T16:49:31.562Z,1008.72
2018-08-08T16:51:24.525Z,1008.68
2018-08-08T16:52:24.523Z,1008.69
2018-08-08T16:54:17.467Z,1008.69
2018-08-08T16:55:17.483Z,1008.65
2018-08-08T16:57:10.532Z,1008.59
2018-08-08T16:58:10.441Z,1008.65
2018-08-08T17:00:03.382Z,1008.66
2018-08-08T17:01:03.402Z,1008.68
2018-08-08T17:02:56.358Z,1008.63
2018-08-08T17:03:56.357Z,1008.64
2018-08-08T17:05:49.309Z,1008.63
2018-08-08T17:06:49.312Z,1008.67
2018-08-08T17:08:42.323Z,1008.69
2018-08-08T17:09:42.264Z,1008.68
2018-08-08T17:11:35.229Z,1008.71
2018-08-08T17:12:35.232Z,1008.74
2018-08-08T17:14:28.172Z,1008.71
2018-08-08T17:15:28.182Z,1008.71
2018-08-08T17:17:21.137Z,1008.67
2018-08-08T17:18:21.137Z,1008.67
2018-08-08T17:20:14.112Z,1008.68
2018-08-08T17:21:14.090Z,1008.62
2018-08-08T17:23:07.046Z,1008.66
2018-08-08T17:24:07.047Z,1008.70
2018-08-08T17:26:00.072Z,1008.62
2018-08-08T17:27:00.001Z,1008.62
2018-08-08T17:28:52.930Z,1008.64
2018-08-08T17:29:52.952Z,1008.59
2018-08-08T17:31:45.917Z,1008.63
2018-08-08T17:32:45.916Z,1008.61
2018-08-08T17:34:38.854Z,1008.60
2018-08-08T17:35:38.877Z,1008.57
2018-08-08T17:37:31.835Z,1008.60
2018-08-08T17:38:31.833Z,1008.57
2018-08-08T17:40:24.768Z,1008.57
2018-08-08T17:41:24.789Z,1008.53
2018-08-08T17:43:17.809Z,1008.56
2018-08-08T17:44:17.739Z,1008.52
2018-08-08T17:46:10.677Z,1008.56
2018-08-08T17:47:10.698Z,1008.58
2018-08-08T17:49:03.651Z,1008.61
2018-08-08T17:50:03.663Z,1008.58
2018-08-08T17:51:56.599Z,1008.67
2018-08-08T17:52:56.604Z,1008.64
2018-08-08T17:54:49.544Z,1008.67